Adel, Georgia
Current Conditions -  °F | °C
As of 4:58 PM on Friday 24 Oct 2014 (Local Time) from KVAD Reporting Station
Few Clouds Few Clouds  
Wind Chill: 75°   Ceiling: Unl
Heat Index: 75°   Visibility: 10mi
Dew Point: 42°   Wind: 2mph
Humidity: 31%   Direction: 120°ESE
Pressure: 29.97"   Gusts: NA
Location:  31.14°N, 83.42°W
Report Text: KVAD 242058Z AUTO 12002KT 10SM FEW200 24/06 A2997 RMK AO2 SLP150 T02380055 56015 $
Loading
Personal Weather Stations






























Interactive Weather Map
Tropical Storm Tracking
New forecast layout! Learn more

10-Day Weather Forecast

Advertisements
Track Severe Weather on mobile